createdAt,value
2019-03-11T00:01:55.139Z,90.91
2019-03-11T00:04:25.884Z,90.79
2019-03-11T00:06:56.407Z,90.67
2019-03-11T00:09:26.214Z,91.33
2019-03-11T00:11:55.989Z,91.00
2019-03-11T00:14:25.898Z,91.11
2019-03-11T00:16:55.694Z,90.72
2019-03-11T00:19:25.494Z,91.01
2019-03-11T00:21:55.242Z,90.61
2019-03-11T00:24:25.028Z,91.03
2019-03-11T00:26:54.864Z,91.25
2019-03-11T00:29:25.885Z,91.51
2019-03-11T00:31:55.701Z,91.31
2019-03-11T00:34:25.396Z,91.45
2019-03-11T00:36:55.157Z,91.28
2019-03-11T00:39:25.954Z,90.91
2019-03-11T00:41:55.785Z,91.05
2019-03-11T00:44:25.748Z,90.94
2019-03-11T00:46:55.528Z,90.99
2019-03-11T00:49:25.237Z,90.83
2019-03-11T00:51:55.026Z,90.81
2019-03-11T00:54:25.065Z,90.51
2019-03-11T00:56:54.759Z,90.66
2019-03-11T00:59:24.831Z,90.16
2019-03-11T01:01:54.649Z,89.88
2019-03-11T01:04:25.414Z,89.32
2019-03-11T01:06:55.313Z,89.41
2019-03-11T01:09:25.097Z,89.25
2019-03-11T01:11:54.827Z,89.46
2019-03-11T01:14:25.059Z,89.00
2019-03-11T01:16:54.795Z,88.98
2019-03-11T01:19:24.589Z,89.43
2019-03-11T01:21:54.365Z,88.57
2019-03-11T01:24:24.114Z,89.01
2019-03-11T01:26:53.982Z,88.88
2019-03-11T01:29:23.927Z,88.49
2019-03-11T01:31:53.651Z,88.94
2019-03-11T01:34:23.381Z,88.54
2019-03-11T01:36:53.417Z,88.19
2019-03-11T01:39:23.229Z,88.87
2019-03-11T01:41:53.158Z,89.07
2019-03-11T01:44:22.948Z,89.15
2019-03-11T01:46:52.713Z,89.13
2019-03-11T01:49:23.900Z,88.29
2019-03-11T01:51:53.918Z,88.86
2019-03-11T01:54:23.765Z,88.99
2019-03-11T01:56:53.447Z,89.11
2019-03-11T01:59:23.484Z,89.23
2019-03-11T02:01:53.300Z,89.48
2019-03-11T02:04:23.013Z,89.81
2019-03-11T02:06:52.718Z,89.66
2019-03-11T02:09:22.549Z,89.78
2019-03-11T02:11:52.361Z,89.85
2019-03-11T02:14:22.399Z,90.50
2019-03-11T02:16:52.548Z,90.73
2019-03-11T02:19:22.313Z,90.44
2019-03-11T02:21:52.203Z,90.59
2019-03-11T02:24:21.905Z,90.58
2019-03-11T02:26:51.617Z,90.51
2019-03-11T02:29:21.379Z,90.87
2019-03-11T02:31:51.213Z,90.46
2019-03-11T02:34:20.910Z,90.58
2019-03-11T02:36:50.891Z,90.62
2019-03-11T02:39:20.939Z,90.72
2019-03-11T02:41:50.751Z,91.10
2019-03-11T02:44:20.696Z,91.36
2019-03-11T02:46:50.403Z,91.13
2019-03-11T02:49:20.089Z,91.57
2019-03-11T02:51:49.886Z,92.08
2019-03-11T02:54:19.589Z,91.90
2019-03-11T02:56:50.335Z,92.09
2019-03-11T02:59:20.136Z,92.18
2019-03-11T03:02:11.733Z,92.36
2019-03-11T03:04:44.939Z,92.70
2019-03-11T03:07:14.711Z,92.87
2019-03-11T03:09:46.401Z,93.04
2019-03-11T03:12:16.199Z,92.76
2019-03-11T03:14:45.859Z,92.77
2019-03-11T03:17:15.698Z,92.59
2019-03-11T03:19:45.679Z,92.54
2019-03-11T03:22:15.887Z,92.62
2019-03-11T03:24:45.895Z,92.93
2019-03-11T03:27:15.600Z,92.99
2019-03-11T03:29:45.391Z,93.18
2019-03-11T03:32:15.220Z,93.17
2019-03-11T03:34:45.043Z,93.21
2019-03-11T03:37:14.981Z,93.28
2019-03-11T03:39:44.798Z,92.89
2019-03-11T03:42:14.665Z,92.61
2019-03-11T03:45:14.238Z,92.65
2019-03-11T03:47:43.985Z,92.54
2019-03-11T03:50:13.788Z,92.52
2019-03-11T03:52:43.573Z,92.36
2019-03-11T03:55:13.512Z,92.64
2019-03-11T03:57:43.344Z,92.43
2019-03-11T04:00:13.921Z,92.05
2019-03-11T04:02:43.793Z,92.19
2019-03-11T04:05:13.824Z,92.01
2019-03-11T04:07:43.706Z,91.98
2019-03-11T04:10:14.009Z,91.92
2019-03-11T04:12:43.796Z,91.95
2019-03-11T04:15:13.748Z,92.10
2019-03-11T04:17:43.945Z,91.87
2019-03-11T04:20:15.247Z,92.12
2019-03-11T04:22:45.027Z,92.15
2019-03-11T04:25:14.770Z,92.27
2019-03-11T04:27:44.714Z,92.18
2019-03-11T04:30:22.333Z,92.57
2019-03-11T04:32:52.206Z,92.12
2019-03-11T04:35:22.161Z,92.12
2019-03-11T04:37:51.888Z,92.10
2019-03-11T04:40:21.682Z,91.79
2019-03-11T04:42:51.795Z,91.88
2019-03-11T04:45:22.566Z,92.06
2019-03-11T04:47:52.371Z,91.51
2019-03-11T04:50:22.189Z,91.57
2019-03-11T04:52:51.962Z,91.46
2019-03-11T04:55:21.737Z,91.54
2019-03-11T04:57:52.867Z,91.59
2019-03-11T05:00:25.204Z,91.62
2019-03-11T05:02:54.997Z,91.50
2019-03-11T05:05:24.790Z,91.41
2019-03-11T05:07:54.636Z,91.51
2019-03-11T05:10:24.406Z,91.45
2019-03-11T05:12:54.854Z,91.52
2019-03-11T05:15:25.010Z,91.26
2019-03-11T05:17:55.158Z,91.25
2019-03-11T05:20:24.945Z,91.25
2019-03-11T05:22:55.096Z,91.05
2019-03-11T05:25:25.113Z,90.78
2019-03-11T05:27:54.880Z,90.71
2019-03-11T05:30:25.606Z,91.07
2019-03-11T05:32:55.914Z,90.44
2019-03-11T05:35:26.011Z,90.78
2019-03-11T05:37:55.732Z,90.89
2019-03-11T05:40:25.623Z,90.47
2019-03-11T05:42:55.373Z,90.41
2019-03-11T05:45:25.255Z,90.19
2019-03-11T05:47:55.019Z,90.85
2019-03-11T05:50:25.179Z,90.92
2019-03-11T05:52:55.052Z,91.15
2019-03-11T05:55:24.816Z,90.66
2019-03-11T05:57:54.596Z,90.96
2019-03-11T06:00:27.842Z,90.62
2019-03-11T06:02:57.705Z,89.97
2019-03-11T06:05:27.461Z,89.85
2019-03-11T06:07:57.194Z,90.46
2019-03-11T06:10:27.051Z,90.33
2019-03-11T06:12:56.915Z,89.99
2019-03-11T06:15:26.660Z,90.22
2019-03-11T06:17:56.603Z,91.08
2019-03-11T06:20:40.151Z,91.39
2019-03-11T06:23:10.849Z,91.55
2019-03-11T06:25:41.698Z,91.39
2019-03-11T06:28:11.753Z,91.24
2019-03-11T06:30:41.596Z,91.76
2019-03-11T06:33:11.389Z,91.99
2019-03-11T06:35:41.103Z,92.23
2019-03-11T06:38:10.938Z,92.20
2019-03-11T06:40:40.710Z,92.76
2019-03-11T06:43:10.437Z,93.25
2019-03-11T06:45:40.107Z,93.43
2019-03-11T06:48:09.831Z,93.66
2019-03-11T06:50:39.760Z,93.62
2019-03-11T06:53:09.564Z,93.64
2019-03-11T06:55:39.234Z,93.67
2019-03-11T06:58:09.326Z,93.74
2019-03-11T07:00:39.089Z,93.68
2019-03-11T07:03:08.867Z,93.47
2019-03-11T07:05:38.756Z,93.64
2019-03-11T07:08:08.657Z,93.31
2019-03-11T07:10:39.531Z,93.22
2019-03-11T07:13:09.622Z,93.46
2019-03-11T07:15:39.690Z,93.27
2019-03-11T07:18:09.809Z,92.83
2019-03-11T07:20:39.603Z,92.54
2019-03-11T07:23:09.258Z,91.83
2019-03-11T07:25:39.174Z,91.94
2019-03-11T07:28:09.084Z,91.89
2019-03-11T07:30:38.811Z,91.97
2019-03-11T07:33:08.860Z,91.98
2019-03-11T07:35:38.595Z,91.58
2019-03-11T07:38:08.360Z,91.85
2019-03-11T07:40:38.157Z,91.83
2019-03-11T07:43:07.935Z,92.06
2019-03-11T07:45:37.631Z,91.89
2019-03-11T07:48:07.504Z,91.36
2019-03-11T07:50:37.358Z,91.69
2019-03-11T07:53:07.187Z,91.54
2019-03-11T07:55:36.983Z,91.47
2019-03-11T07:58:06.863Z,91.42
2019-03-11T08:00:37.562Z,91.22
2019-03-11T08:03:07.422Z,91.59
2019-03-11T08:05:37.503Z,91.85
2019-03-11T08:08:07.844Z,92.21
2019-03-11T08:10:38.209Z,92.42
2019-03-11T08:13:08.132Z,92.14
2019-03-11T08:15:37.854Z,92.45
2019-03-11T08:18:07.760Z,92.01
2019-03-11T08:20:37.550Z,91.67
2019-03-11T08:23:08.057Z,90.81
2019-03-11T08:25:37.929Z,91.11
2019-03-11T08:28:07.619Z,91.16
2019-03-11T08:30:37.435Z,91.75
2019-03-11T08:33:07.322Z,91.80
2019-03-11T08:35:37.080Z,92.69
2019-03-11T08:38:06.851Z,92.82
2019-03-11T08:40:36.595Z,93.14
2019-03-11T08:43:06.441Z,93.12
2019-03-11T08:45:36.290Z,93.02
2019-03-11T08:48:06.144Z,92.46
2019-03-11T08:50:36.174Z,92.98
2019-03-11T08:53:05.919Z,93.00
2019-03-11T08:55:35.718Z,92.88
2019-03-11T08:58:05.828Z,92.77
2019-03-11T09:00:35.665Z,92.96
2019-03-11T09:03:05.465Z,93.13
2019-03-11T09:05:35.347Z,93.08
2019-03-11T09:08:05.318Z,93.20
2019-03-11T09:10:35.307Z,93.18
2019-03-11T09:13:06.493Z,93.06
2019-03-11T09:15:36.272Z,93.14
2019-03-11T09:18:06.272Z,93.43
2019-03-11T09:20:36.270Z,92.62
2019-03-11T09:23:06.142Z,92.43
2019-03-11T09:25:35.944Z,92.09
2019-03-11T09:28:05.833Z,92.23
2019-03-11T09:30:35.937Z,93.01
2019-03-11T09:33:08.317Z,93.26
2019-03-11T09:35:37.548Z,93.73
2019-03-11T09:38:07.330Z,93.97
2019-03-11T09:40:37.107Z,94.22
2019-03-11T09:43:06.919Z,94.30
2019-03-11T09:45:36.713Z,94.57
2019-03-11T09:48:06.674Z,94.59
2019-03-11T09:50:36.350Z,94.67
2019-03-11T09:53:06.151Z,94.64
2019-03-11T09:55:35.943Z,94.77
2019-03-11T09:58:05.716Z,94.76
2019-03-11T10:00:35.632Z,94.88
2019-03-11T10:03:05.484Z,94.84
2019-03-11T10:05:36.394Z,94.76
2019-03-11T10:08:06.436Z,94.63
2019-03-11T10:10:36.171Z,94.67
2019-03-11T10:13:06.281Z,94.39
2019-03-11T10:15:36.112Z,94.27
2019-03-11T10:18:05.966Z,93.96
2019-03-11T10:20:35.955Z,93.16
2019-03-11T10:23:06.004Z,92.99
2019-03-11T10:25:35.849Z,92.70
2019-03-11T10:28:05.634Z,92.63
2019-03-11T10:30:35.501Z,92.43
2019-03-11T10:33:05.298Z,92.37
2019-03-11T10:35:35.183Z,92.46
2019-03-11T10:38:05.097Z,92.88
2019-03-11T10:40:34.995Z,92.65
2019-03-11T10:43:04.899Z,92.80
2019-03-11T10:45:34.681Z,92.42
2019-03-11T10:48:04.554Z,92.45
2019-03-11T10:50:34.307Z,92.38
2019-03-11T10:53:04.133Z,92.07
2019-03-11T10:55:33.959Z,91.43
2019-03-11T10:58:03.795Z,90.99
2019-03-11T11:00:33.664Z,90.83
2019-03-11T11:03:03.508Z,90.21
2019-03-11T11:05:33.336Z,89.97
2019-03-11T11:08:03.171Z,89.69
2019-03-11T11:10:33.047Z,90.72
2019-03-11T11:13:03.116Z,89.61
2019-03-11T11:15:32.992Z,89.59
2019-03-11T11:18:02.797Z,89.69
2019-03-11T11:20:32.742Z,88.32
2019-03-11T11:23:02.699Z,89.12
2019-03-11T11:25:32.488Z,87.76
2019-03-11T11:28:02.973Z,88.46
2019-03-11T11:30:32.913Z,88.97
2019-03-11T11:33:02.923Z,89.30
2019-03-11T11:35:32.862Z,88.79
2019-03-11T11:38:02.674Z,88.71
2019-03-11T11:40:32.565Z,89.14
2019-03-11T11:43:02.362Z,88.50
2019-03-11T11:45:32.218Z,89.03
2019-03-11T11:48:02.113Z,88.89
2019-03-11T11:50:31.910Z,89.43
2019-03-11T11:53:01.746Z,89.19
2019-03-11T11:55:31.623Z,89.69
2019-03-11T11:58:01.477Z,89.96
2019-03-11T12:00:32.098Z,90.33
2019-03-11T12:03:01.864Z,90.44
2019-03-11T12:05:31.739Z,90.43
2019-03-11T12:08:01.780Z,90.81
2019-03-11T12:10:31.660Z,91.09
2019-03-11T12:13:01.583Z,91.40
2019-03-11T12:15:31.433Z,91.32
2019-03-11T12:18:01.509Z,91.67
2019-03-11T12:20:31.474Z,92.05
2019-03-11T12:23:01.383Z,92.13
2019-03-11T12:25:31.476Z,91.99
2019-03-11T12:28:01.320Z,92.21
2019-03-11T12:30:31.176Z,91.80
2019-03-11T12:33:00.945Z,91.21
2019-03-11T12:35:30.916Z,91.86
2019-03-11T12:38:02.040Z,91.30
2019-03-11T12:40:31.912Z,91.23
2019-03-11T12:43:01.787Z,91.02
2019-03-11T12:45:31.544Z,89.81
2019-03-11T12:48:01.374Z,90.20
2019-03-11T12:50:31.250Z,90.39
2019-03-11T12:53:01.051Z,90.12
2019-03-11T12:55:30.900Z,90.48
2019-03-11T12:58:00.809Z,89.23
2019-03-11T13:00:30.546Z,90.44
2019-03-11T13:03:00.655Z,90.46
2019-03-11T13:05:30.554Z,90.85
2019-03-11T13:08:00.432Z,90.80
2019-03-11T13:10:30.317Z,91.38
2019-03-11T13:13:00.169Z,90.23
2019-03-11T13:15:30.429Z,90.51
2019-03-11T13:18:35.407Z,89.91
2019-03-11T13:21:18.353Z,89.10
2019-03-11T13:23:48.308Z,88.53
2019-03-11T13:26:18.090Z,88.22
2019-03-11T13:28:47.890Z,87.09
2019-03-11T13:31:17.669Z,87.16
2019-03-11T13:33:47.792Z,87.16
2019-03-11T13:36:17.552Z,87.77
2019-03-11T13:38:47.539Z,86.51
2019-03-11T13:41:17.409Z,86.51
2019-03-11T13:43:48.633Z,86.98
2019-03-11T13:46:18.615Z,86.34
2019-03-11T13:48:48.393Z,85.17
2019-03-11T13:51:18.504Z,85.95
2019-03-11T13:53:48.348Z,83.93
2019-03-11T13:56:18.458Z,86.31
2019-03-11T13:58:48.290Z,85.11
2019-03-11T14:01:21.323Z,85.26
2019-03-11T14:03:51.357Z,85.93
2019-03-11T14:06:21.711Z,85.31
2019-03-11T14:08:51.533Z,85.76
2019-03-11T14:11:21.333Z,85.16
2019-03-11T14:13:51.119Z,84.52
2019-03-11T14:16:20.910Z,85.72
2019-03-11T14:18:50.711Z,85.86
2019-03-11T14:21:25.768Z,85.64
2019-03-11T14:23:52.144Z,85.64
2019-03-11T14:26:21.899Z,85.87
2019-03-11T14:28:51.741Z,86.18
2019-03-11T14:31:21.563Z,87.65
2019-03-11T14:33:51.302Z,87.91
2019-03-11T14:36:21.033Z,87.77
2019-03-11T14:38:50.876Z,87.57
2019-03-11T14:41:20.640Z,88.20
2019-03-11T14:43:50.368Z,87.90
2019-03-11T14:46:20.148Z,87.83
2019-03-11T14:48:50.046Z,89.18
2019-03-11T14:51:19.921Z,89.74
2019-03-11T14:53:50.878Z,89.26
2019-03-11T14:56:20.683Z,89.63
2019-03-11T14:58:50.487Z,89.50
2019-03-11T15:01:20.316Z,89.03
2019-03-11T15:03:50.032Z,90.48
2019-03-11T15:06:19.861Z,90.08
2019-03-11T15:08:49.644Z,89.73
2019-03-11T15:11:20.540Z,90.71
2019-03-11T15:13:50.783Z,91.26
2019-03-11T15:16:20.767Z,91.34
2019-03-11T15:18:50.594Z,90.33
2019-03-11T15:21:23.198Z,90.60
2019-03-11T15:23:53.061Z,90.15
2019-03-11T15:26:25.361Z,89.95
2019-03-11T15:28:54.376Z,90.53
2019-03-11T15:31:24.220Z,89.91
2019-03-11T15:33:55.058Z,89.53
2019-03-11T15:36:33.163Z,89.86
2019-03-11T15:38:57.416Z,89.55
2019-03-11T15:41:27.229Z,88.93
2019-03-11T15:43:57.031Z,89.29
2019-03-11T15:46:26.894Z,89.74
2019-03-11T15:48:56.684Z,89.88
2019-03-11T15:51:36.204Z,90.53
2019-03-11T15:53:58.456Z,90.16
2019-03-11T15:56:29.479Z,90.09
2019-03-11T15:58:59.285Z,90.59
2019-03-11T16:01:29.052Z,90.57
2019-03-11T16:03:58.805Z,90.64
2019-03-11T16:06:28.857Z,91.04
2019-03-11T16:08:59.150Z,90.63
2019-03-11T16:11:28.933Z,90.19
2019-03-11T16:13:58.847Z,90.86
2019-03-11T16:16:28.619Z,90.80
2019-03-11T16:18:58.502Z,91.39
2019-03-11T16:21:28.281Z,90.54
2019-03-11T16:23:58.066Z,91.32
2019-03-11T16:26:28.140Z,91.52
2019-03-11T16:28:57.961Z,91.10
2019-03-11T16:31:27.925Z,91.76
2019-03-11T16:33:57.790Z,91.66
2019-03-11T16:36:27.700Z,92.04
2019-03-11T16:38:57.599Z,91.98
2019-03-11T16:41:27.437Z,91.74
2019-03-11T16:43:57.187Z,91.87
2019-03-11T16:46:27.400Z,92.06
2019-03-11T16:48:58.142Z,91.98
2019-03-11T16:51:28.273Z,91.57
2019-03-11T16:53:58.002Z,92.20
2019-03-11T16:56:28.397Z,91.58
2019-03-11T16:58:58.114Z,92.26
2019-03-11T17:01:28.191Z,92.36
2019-03-11T17:03:58.046Z,92.52
2019-03-11T17:06:29.155Z,92.49
2019-03-11T17:08:59.279Z,92.57
2019-03-11T17:11:28.956Z,92.10
2019-03-11T17:13:59.160Z,92.22
2019-03-11T17:16:30.407Z,92.29
2019-03-11T17:19:00.120Z,92.24
2019-03-11T17:21:29.939Z,92.53
2019-03-11T17:24:00.040Z,92.44
2019-03-11T17:26:29.953Z,92.57
2019-03-11T17:28:59.805Z,92.85
2019-03-11T17:31:29.887Z,92.73
2019-03-11T17:33:59.614Z,92.78
2019-03-11T17:36:30.813Z,92.75
2019-03-11T17:39:00.593Z,92.95
2019-03-11T17:41:31.998Z,92.33
2019-03-11T17:44:01.827Z,92.40
2019-03-11T17:46:31.728Z,92.64
2019-03-11T17:49:01.530Z,92.59
2019-03-11T17:51:32.556Z,92.55
2019-03-11T17:54:02.413Z,92.44
2019-03-11T17:56:32.317Z,93.02
2019-03-11T17:59:02.092Z,92.95
2019-03-11T18:01:33.000Z,93.07
2019-03-11T18:04:02.844Z,92.93
2019-03-11T18:06:32.664Z,93.06
2019-03-11T18:09:04.253Z,92.94
2019-03-11T18:11:35.622Z,93.23
2019-03-11T18:14:05.379Z,93.30
2019-03-11T18:16:35.159Z,92.96
2019-03-11T18:19:04.993Z,92.53
2019-03-11T18:21:35.037Z,92.79
2019-03-11T18:24:04.958Z,92.23
2019-03-11T18:26:34.849Z,90.47
2019-03-11T18:29:04.733Z,90.53
2019-03-11T18:31:34.522Z,89.08
2019-03-11T18:34:04.311Z,89.30
2019-03-11T18:36:34.158Z,89.08
2019-03-11T18:39:04.959Z,89.62
2019-03-11T18:41:37.117Z,89.00
2019-03-11T18:44:08.216Z,88.48
2019-03-11T18:46:37.925Z,88.58
2019-03-11T18:49:07.656Z,88.06
2019-03-11T18:51:37.344Z,88.20
2019-03-11T18:54:07.261Z,87.78
2019-03-11T18:56:37.176Z,87.70
2019-03-11T18:59:07.513Z,87.30
2019-03-11T19:01:37.598Z,87.11
2019-03-11T19:04:07.484Z,85.82
2019-03-11T19:06:37.307Z,85.93
2019-03-11T19:09:07.672Z,87.34
2019-03-11T19:11:38.349Z,87.38
2019-03-11T19:14:08.313Z,86.59
2019-03-11T19:16:38.364Z,87.03
2019-03-11T19:19:08.288Z,88.37
2019-03-11T19:21:38.061Z,88.28
2019-03-11T19:24:07.921Z,87.89
2019-03-11T19:26:38.062Z,88.58
2019-03-11T19:29:07.984Z,87.81
2019-03-11T19:31:37.832Z,87.88
2019-03-11T19:34:07.917Z,87.41
2019-03-11T19:36:37.628Z,87.69
2019-03-11T19:39:10.768Z,88.71
2019-03-11T19:41:42.346Z,88.24
2019-03-11T19:44:12.537Z,88.05
2019-03-11T19:46:42.683Z,87.59
2019-03-11T19:49:12.473Z,86.68
2019-03-11T19:51:42.347Z,88.02
2019-03-11T19:54:12.252Z,87.52
2019-03-11T19:56:42.553Z,88.83
2019-03-11T19:59:12.371Z,87.45
2019-03-11T20:01:42.243Z,87.47
2019-03-11T20:04:12.018Z,88.29
2019-03-11T20:06:41.895Z,88.22
2019-03-11T20:09:14.365Z,88.47
2019-03-11T20:11:44.247Z,89.14
2019-03-11T20:14:14.048Z,87.96
2019-03-11T20:16:43.789Z,89.00
2019-03-11T20:19:13.644Z,88.34
2019-03-11T20:21:43.581Z,89.52
2019-03-11T20:24:13.366Z,88.67
2019-03-11T20:26:43.528Z,88.69
2019-03-11T20:29:13.674Z,89.26
2019-03-11T20:31:43.520Z,89.10
2019-03-11T20:34:13.357Z,89.06
2019-03-11T20:36:43.450Z,89.05
2019-03-11T20:39:13.584Z,89.53
2019-03-11T20:41:43.999Z,89.64
2019-03-11T20:44:13.894Z,89.56
2019-03-11T20:46:43.977Z,89.60
2019-03-11T20:49:13.809Z,90.05
2019-03-11T20:51:43.617Z,89.80
2019-03-11T20:54:13.759Z,89.49
2019-03-11T20:56:43.907Z,89.82
2019-03-11T20:59:13.671Z,89.42
2019-03-11T21:01:43.513Z,89.78
2019-03-11T21:04:13.560Z,89.98
2019-03-11T21:15:24.517Z,90.57
2019-03-11T21:17:54.376Z,90.73
2019-03-11T21:38:37.018Z,90.17
2019-03-11T21:41:06.785Z,89.89
2019-03-11T21:43:37.289Z,90.27
2019-03-11T21:46:07.109Z,89.82
2019-03-11T21:48:36.914Z,89.91
2019-03-11T21:51:06.884Z,90.05
2019-03-11T21:53:37.172Z,89.61
2019-03-11T21:56:07.314Z,89.92
2019-03-11T21:58:37.318Z,89.81
2019-03-11T22:01:07.119Z,89.98
2019-03-11T22:03:36.897Z,90.05
2019-03-11T22:06:06.684Z,89.58
2019-03-11T22:08:36.466Z,90.06
2019-03-11T22:11:06.435Z,90.03
2019-03-11T22:13:36.912Z,89.89
2019-03-11T22:16:07.432Z,90.08
2019-03-11T22:18:37.183Z,89.76
2019-03-11T22:21:07.003Z,89.40
2019-03-11T22:23:36.734Z,89.36
2019-03-11T22:26:06.550Z,89.75
2019-03-11T22:28:36.275Z,90.33
2019-03-11T22:31:06.207Z,89.84
2019-03-11T22:33:36.000Z,89.77
2019-03-11T22:36:05.822Z,89.50
2019-03-11T22:38:35.653Z,89.87
2019-03-11T22:41:05.634Z,90.18
2019-03-11T22:43:35.878Z,89.99
2019-03-11T22:46:05.648Z,90.42
2019-03-11T22:48:35.547Z,90.38
2019-03-11T22:51:05.729Z,89.99
2019-03-11T22:53:35.557Z,90.16
2019-03-11T22:56:05.747Z,90.48
2019-03-11T22:58:35.869Z,90.61
2019-03-11T23:01:06.640Z,90.58
2019-03-11T23:03:37.132Z,90.82
2019-03-11T23:06:06.956Z,90.65
2019-03-11T23:08:36.767Z,90.75
2019-03-11T23:11:06.668Z,91.02
2019-03-11T23:13:36.493Z,91.26
2019-03-11T23:16:06.711Z,91.44
2019-03-11T23:18:36.504Z,91.34
2019-03-11T23:21:06.349Z,91.36
2019-03-11T23:23:36.465Z,91.23
2019-03-11T23:26:06.410Z,91.25
2019-03-11T23:28:37.366Z,91.02
2019-03-11T23:31:07.364Z,90.78
2019-03-11T23:33:37.191Z,90.79
2019-03-11T23:36:07.536Z,91.28
2019-03-11T23:38:37.882Z,91.20
2019-03-11T23:41:08.156Z,91.10
2019-03-11T23:43:38.245Z,91.24
2019-03-11T23:46:08.131Z,91.11
2019-03-11T23:48:37.849Z,90.63
2019-03-11T23:51:07.755Z,91.34
2019-03-11T23:53:37.593Z,91.41
2019-03-11T23:56:07.501Z,91.79
2019-03-11T23:58:37.240Z,92.07
